sensor_id;sensor_type;location;lat;lon;timestamp;P1;durP1;ratioP1;P2;durP2;ratioP2
38427;SDS011;24211;49.980;19.776;2023-07-30T00:02:08;3.20;;;1.55;;
38427;SDS011;24211;49.980;19.776;2023-07-30T00:04:35;3.35;;;1.65;;
38427;SDS011;24211;49.980;19.776;2023-07-30T00:07:03;3.00;;;1.60;;
38427;SDS011;24211;49.980;19.776;2023-07-30T00:09:30;4.57;;;2.05;;
38427;SDS011;24211;49.980;19.776;2023-07-30T00:11:57;4.05;;;1.90;;
38427;SDS011;24211;49.980;19.776;2023-07-30T00:14:28;4.63;;;2.03;;
38427;SDS011;24211;49.980;19.776;2023-07-30T00:16:56;4.60;;;1.80;;
38427;SDS011;24211;49.980;19.776;2023-07-30T00:19:23;3.40;;;1.67;;
38427;SDS011;24211;49.980;19.776;2023-07-30T00:21:52;2.95;;;1.60;;
38427;SDS011;24211;49.980;19.776;2023-07-30T00:24:19;3.65;;;1.80;;
38427;SDS011;24211;49.980;19.776;2023-07-30T00:26:47;3.40;;;1.80;;
38427;SDS011;24211;49.980;19.776;2023-07-30T00:29:14;4.45;;;1.60;;
38427;SDS011;24211;49.980;19.776;2023-07-30T00:31:46;3.83;;;1.85;;
38427;SDS011;24211;49.980;19.776;2023-07-30T00:34:13;3.53;;;1.70;;
38427;SDS011;24211;49.980;19.776;2023-07-30T00:36:49;3.80;;;1.70;;
38427;SDS011;24211;49.980;19.776;2023-07-30T00:39:21;3.90;;;1.67;;
38427;SDS011;24211;49.980;19.776;2023-07-30T00:41:48;4.07;;;1.63;;
38427;SDS011;24211;49.980;19.776;2023-07-30T00:44:16;3.97;;;1.90;;
38427;SDS011;24211;49.980;19.776;2023-07-30T00:46:43;3.40;;;1.58;;
38427;SDS011;24211;49.980;19.776;2023-07-30T00:49:14;4.40;;;1.70;;
38427;SDS011;24211;49.980;19.776;2023-07-30T00:51:42;5.07;;;1.90;;
38427;SDS011;24211;49.980;19.776;2023-07-30T00:54:12;4.20;;;1.73;;
38427;SDS011;24211;49.980;19.776;2023-07-30T00:56:40;3.97;;;1.80;;
38427;SDS011;24211;49.980;19.776;2023-07-30T00:59:20;3.78;;;1.60;;
38427;SDS011;24211;49.980;19.776;2023-07-30T01:01:49;3.45;;;1.70;;
38427;SDS011;24211;49.980;19.776;2023-07-30T01:04:19;3.40;;;1.50;;
38427;SDS011;24211;49.980;19.776;2023-07-30T01:06:51;3.72;;;1.70;;
38427;SDS011;24211;49.980;19.776;2023-07-30T01:09:19;5.32;;;1.83;;
38427;SDS011;24211;49.980;19.776;2023-07-30T01:11:48;3.17;;;1.60;;
38427;SDS011;24211;49.980;19.776;2023-07-30T01:14:16;3.25;;;1.60;;
38427;SDS011;24211;49.980;19.776;2023-07-30T01:16:47;4.55;;;1.50;;
38427;SDS011;24211;49.980;19.776;2023-07-30T01:19:15;3.33;;;1.50;;
38427;SDS011;24211;49.980;19.776;2023-07-30T01:21:45;3.58;;;1.50;;
38427;SDS011;24211;49.980;19.776;2023-07-30T01:24:13;4.13;;;1.80;;
38427;SDS011;24211;49.980;19.776;2023-07-30T01:26:44;3.20;;;1.55;;
38427;SDS011;24211;49.980;19.776;2023-07-30T01:29:24;2.83;;;1.58;;
38427;SDS011;24211;49.980;19.776;2023-07-30T01:32:02;3.03;;;1.48;;
38427;SDS011;24211;49.980;19.776;2023-07-30T01:34:35;2.72;;;1.40;;
38427;SDS011;24211;49.980;19.776;2023-07-30T01:37:05;3.17;;;1.60;;
38427;SDS011;24211;49.980;19.776;2023-07-30T01:39:50;4.30;;;1.45;;
38427;SDS011;24211;49.980;19.776;2023-07-30T01:42:19;2.88;;;1.27;;
38427;SDS011;24211;49.980;19.776;2023-07-30T01:44:46;3.13;;;1.58;;
38427;SDS011;24211;49.980;19.776;2023-07-30T01:47:14;2.50;;;1.38;;
38427;SDS011;24211;49.980;19.776;2023-07-30T01:49:41;3.08;;;1.63;;
38427;SDS011;24211;49.980;19.776;2023-07-30T01:52:08;3.17;;;1.30;;
38427;SDS011;24211;49.980;19.776;2023-07-30T01:54:37;3.15;;;1.58;;
38427;SDS011;24211;49.980;19.776;2023-07-30T01:57:05;3.13;;;1.42;;
38427;SDS011;24211;49.980;19.776;2023-07-30T01:59:39;3.10;;;1.48;;
38427;SDS011;24211;49.980;19.776;2023-07-30T02:02:07;2.75;;;1.30;;
38427;SDS011;24211;49.980;19.776;2023-07-30T02:04:34;2.90;;;1.30;;
38427;SDS011;24211;49.980;19.776;2023-07-30T02:07:02;2.45;;;1.25;;
38427;SDS011;24211;49.980;19.776;2023-07-30T02:09:29;4.57;;;1.40;;
38427;SDS011;24211;49.980;19.776;2023-07-30T02:12:03;3.70;;;1.33;;
38427;SDS011;24211;49.980;19.776;2023-07-30T02:14:31;3.55;;;1.45;;
38427;SDS011;24211;49.980;19.776;2023-07-30T02:17:02;3.00;;;1.35;;
38427;SDS011;24211;49.980;19.776;2023-07-30T02:19:29;2.13;;;1.23;;
38427;SDS011;24211;49.980;19.776;2023-07-30T02:21:56;2.30;;;1.30;;
38427;SDS011;24211;49.980;19.776;2023-07-30T02:24:24;2.33;;;1.15;;
38427;SDS011;24211;49.980;19.776;2023-07-30T02:26:51;2.58;;;1.20;;
38427;SDS011;24211;49.980;19.776;2023-07-30T02:29:18;2.58;;;1.30;;
38427;SDS011;24211;49.980;19.776;2023-07-30T02:31:45;2.47;;;1.20;;
38427;SDS011;24211;49.980;19.776;2023-07-30T02:34:14;2.35;;;1.20;;
38427;SDS011;24211;49.980;19.776;2023-07-30T02:36:43;2.22;;;1.13;;
38427;SDS011;24211;49.980;19.776;2023-07-30T02:39:10;2.53;;;1.10;;
38427;SDS011;24211;49.980;19.776;2023-07-30T02:41:38;2.35;;;1.20;;
38427;SDS011;24211;49.980;19.776;2023-07-30T02:44:07;3.80;;;1.30;;
38427;SDS011;24211;49.980;19.776;2023-07-30T02:46:34;2.97;;;1.30;;
38427;SDS011;24211;49.980;19.776;2023-07-30T02:49:02;2.65;;;1.30;;
38427;SDS011;24211;49.980;19.776;2023-07-30T02:51:29;2.83;;;1.30;;
38427;SDS011;24211;49.980;19.776;2023-07-30T02:53:58;2.42;;;1.30;;
38427;SDS011;24211;49.980;19.776;2023-07-30T02:56:32;2.38;;;1.10;;
38427;SDS011;24211;49.980;19.776;2023-07-30T02:59:01;2.45;;;1.27;;
38427;SDS011;24211;49.980;19.776;2023-07-30T03:01:29;2.50;;;1.20;;
38427;SDS011;24211;49.980;19.776;2023-07-30T03:03:56;2.78;;;1.20;;
38427;SDS011;24211;49.980;19.776;2023-07-30T03:06:25;2.75;;;1.20;;
38427;SDS011;24211;49.980;19.776;2023-07-30T03:08:52;2.78;;;1.20;;
38427;SDS011;24211;49.980;19.776;2023-07-30T03:11:21;1.88;;;1.10;;
38427;SDS011;24211;49.980;19.776;2023-07-30T03:13:50;2.33;;;1.17;;
38427;SDS011;24211;49.980;19.776;2023-07-30T03:16:18;3.53;;;1.17;;
38427;SDS011;24211;49.980;19.776;2023-07-30T03:18:46;2.33;;;1.17;;
38427;SDS011;24211;49.980;19.776;2023-07-30T03:21:14;3.00;;;1.17;;
38427;SDS011;24211;49.980;19.776;2023-07-30T03:23:41;2.47;;;1.20;;
38427;SDS011;24211;49.980;19.776;2023-07-30T03:26:13;2.33;;;1.05;;
38427;SDS011;24211;49.980;19.776;2023-07-30T03:28:40;2.70;;;0.95;;
38427;SDS011;24211;49.980;19.776;2023-07-30T03:31:08;2.67;;;1.13;;
38427;SDS011;24211;49.980;19.776;2023-07-30T03:33:35;3.08;;;1.20;;
38427;SDS011;24211;49.980;19.776;2023-07-30T03:36:03;2.92;;;1.23;;
38427;SDS011;24211;49.980;19.776;2023-07-30T03:38:31;1.77;;;1.02;;
38427;SDS011;24211;49.980;19.776;2023-07-30T03:41:05;1.77;;;0.93;;
38427;SDS011;24211;49.980;19.776;2023-07-30T03:43:33;2.40;;;1.17;;
38427;SDS011;24211;49.980;19.776;2023-07-30T03:46:01;2.92;;;1.10;;
38427;SDS011;24211;49.980;19.776;2023-07-30T03:48:30;2.30;;;1.05;;
38427;SDS011;24211;49.980;19.776;2023-07-30T03:50:57;2.45;;;1.00;;
38427;SDS011;24211;49.980;19.776;2023-07-30T03:53:24;2.25;;;1.02;;
38427;SDS011;24211;49.980;19.776;2023-07-30T03:55:53;2.38;;;1.00;;
38427;SDS011;24211;49.980;19.776;2023-07-30T03:58:20;2.40;;;0.93;;
38427;SDS011;24211;49.980;19.776;2023-07-30T04:00:48;2.67;;;1.27;;
38427;SDS011;24211;49.980;19.776;2023-07-30T04:03:15;1.67;;;0.90;;
38427;SDS011;24211;49.980;19.776;2023-07-30T04:05:42;1.83;;;0.80;;
38427;SDS011;24211;49.980;19.776;2023-07-30T04:08:09;1.77;;;0.98;;
38427;SDS011;24211;49.980;19.776;2023-07-30T04:10:37;2.38;;;1.00;;
38427;SDS011;24211;49.980;19.776;2023-07-30T04:13:05;2.70;;;1.02;;
38427;SDS011;24211;49.980;19.776;2023-07-30T04:15:34;2.50;;;1.08;;
38427;SDS011;24211;49.980;19.776;2023-07-30T04:18:01;1.95;;;0.90;;
38427;SDS011;24211;49.980;19.776;2023-07-30T04:20:29;1.65;;;0.82;;
38427;SDS011;24211;49.980;19.776;2023-07-30T04:22:56;2.67;;;1.13;;
38427;SDS011;24211;49.980;19.776;2023-07-30T04:25:25;1.77;;;0.88;;
38427;SDS011;24211;49.980;19.776;2023-07-30T04:27:52;2.63;;;1.02;;
38427;SDS011;24211;49.980;19.776;2023-07-30T04:30:19;1.63;;;0.80;;
38427;SDS011;24211;49.980;19.776;2023-07-30T04:32:47;1.75;;;1.00;;
38427;SDS011;24211;49.980;19.776;2023-07-30T04:35:14;1.85;;;0.80;;
38427;SDS011;24211;49.980;19.776;2023-07-30T04:37:41;1.85;;;0.80;;
38427;SDS011;24211;49.980;19.776;2023-07-30T04:40:10;1.65;;;0.80;;
38427;SDS011;24211;49.980;19.776;2023-07-30T04:42:37;2.35;;;1.00;;
38427;SDS011;24211;49.980;19.776;2023-07-30T04:45:04;2.00;;;0.90;;
38427;SDS011;24211;49.980;19.776;2023-07-30T04:47:35;1.50;;;0.80;;
38427;SDS011;24211;49.980;19.776;2023-07-30T04:50:03;1.95;;;0.90;;
38427;SDS011;24211;49.980;19.776;2023-07-30T04:52:30;1.83;;;1.00;;
38427;SDS011;24211;49.980;19.776;2023-07-30T04:54:58;2.00;;;0.80;;
38427;SDS011;24211;49.980;19.776;2023-07-30T04:57:25;2.30;;;0.90;;
38427;SDS011;24211;49.980;19.776;2023-07-30T04:59:53;3.47;;;0.93;;
38427;SDS011;24211;49.980;19.776;2023-07-30T05:02:20;1.60;;;0.90;;
38427;SDS011;24211;49.980;19.776;2023-07-30T05:04:48;1.23;;;0.80;;
38427;SDS011;24211;49.980;19.776;2023-07-30T05:07:15;1.58;;;0.90;;
38427;SDS011;24211;49.980;19.776;2023-07-30T05:09:42;2.55;;;0.90;;
38427;SDS011;24211;49.980;19.776;2023-07-30T05:12:09;1.98;;;0.98;;
38427;SDS011;24211;49.980;19.776;2023-07-30T05:14:36;1.95;;;1.05;;
38427;SDS011;24211;49.980;19.776;2023-07-30T05:17:04;2.20;;;0.95;;
38427;SDS011;24211;49.980;19.776;2023-07-30T05:19:31;2.03;;;1.00;;
38427;SDS011;24211;49.980;19.776;2023-07-30T05:21:58;2.13;;;0.95;;
38427;SDS011;24211;49.980;19.776;2023-07-30T05:24:28;1.80;;;0.80;;
38427;SDS011;24211;49.980;19.776;2023-07-30T05:26:55;3.10;;;1.20;;
38427;SDS011;24211;49.980;19.776;2023-07-30T05:29:22;2.10;;;1.08;;
38427;SDS011;24211;49.980;19.776;2023-07-30T05:31:49;1.85;;;0.90;;
38427;SDS011;24211;49.980;19.776;2023-07-30T05:34:17;1.98;;;0.90;;
38427;SDS011;24211;49.980;19.776;2023-07-30T05:36:44;1.30;;;0.80;;
38427;SDS011;24211;49.980;19.776;2023-07-30T05:39:11;1.42;;;0.77;;
38427;SDS011;24211;49.980;19.776;2023-07-30T05:41:38;2.00;;;0.88;;
38427;SDS011;24211;49.980;19.776;2023-07-30T05:44:06;2.47;;;0.90;;
38427;SDS011;24211;49.980;19.776;2023-07-30T05:46:33;1.58;;;0.90;;
38427;SDS011;24211;49.980;19.776;2023-07-30T05:49:01;2.35;;;0.90;;
38427;SDS011;24211;49.980;19.776;2023-07-30T05:51:28;3.65;;;1.00;;
38427;SDS011;24211;49.980;19.776;2023-07-30T05:53:55;2.42;;;0.80;;
38427;SDS011;24211;49.980;19.776;2023-07-30T05:56:22;2.28;;;0.93;;
38427;SDS011;24211;49.980;19.776;2023-07-30T05:58:50;1.85;;;0.82;;
38427;SDS011;24211;49.980;19.776;2023-07-30T06:01:17;2.45;;;1.10;;
38427;SDS011;24211;49.980;19.776;2023-07-30T06:03:46;1.52;;;0.70;;
38427;SDS011;24211;49.980;19.776;2023-07-30T06:06:14;2.35;;;0.90;;
38427;SDS011;24211;49.980;19.776;2023-07-30T06:08:41;1.77;;;0.90;;
38427;SDS011;24211;49.980;19.776;2023-07-30T06:11:08;1.70;;;0.80;;
38427;SDS011;24211;49.980;19.776;2023-07-30T06:13:37;2.10;;;0.90;;
38427;SDS011;24211;49.980;19.776;2023-07-30T06:16:04;1.58;;;0.80;;
38427;SDS011;24211;49.980;19.776;2023-07-30T06:18:31;3.03;;;1.00;;
38427;SDS011;24211;49.980;19.776;2023-07-30T06:20:58;2.38;;;1.00;;
38427;SDS011;24211;49.980;19.776;2023-07-30T06:23:26;3.33;;;1.23;;
38427;SDS011;24211;49.980;19.776;2023-07-30T06:25:53;2.00;;;0.85;;
38427;SDS011;24211;49.980;19.776;2023-07-30T06:28:20;2.65;;;1.38;;
38427;SDS011;24211;49.980;19.776;2023-07-30T06:30:47;4.55;;;1.30;;
38427;SDS011;24211;49.980;19.776;2023-07-30T06:33:15;2.70;;;1.20;;
38427;SDS011;24211;49.980;19.776;2023-07-30T06:35:42;2.53;;;1.30;;
38427;SDS011;24211;49.980;19.776;2023-07-30T06:38:09;3.05;;;1.40;;
38427;SDS011;24211;49.980;19.776;2023-07-30T06:40:37;4.32;;;1.25;;
38427;SDS011;24211;49.980;19.776;2023-07-30T06:43:04;3.95;;;1.40;;
38427;SDS011;24211;49.980;19.776;2023-07-30T06:45:31;2.55;;;1.25;;
38427;SDS011;24211;49.980;19.776;2023-07-30T06:47:59;2.72;;;1.13;;
38427;SDS011;24211;49.980;19.776;2023-07-30T06:50:26;3.13;;;1.05;;
38427;SDS011;24211;49.980;19.776;2023-07-30T06:52:53;3.13;;;1.40;;
38427;SDS011;24211;49.980;19.776;2023-07-30T06:55:20;2.70;;;1.30;;
38427;SDS011;24211;49.980;19.776;2023-07-30T06:57:48;2.33;;;1.13;;
38427;SDS011;24211;49.980;19.776;2023-07-30T07:00:15;2.45;;;1.20;;
38427;SDS011;24211;49.980;19.776;2023-07-30T07:02:48;2.80;;;1.20;;
38427;SDS011;24211;49.980;19.776;2023-07-30T07:05:16;2.53;;;1.20;;
38427;SDS011;24211;49.980;19.776;2023-07-30T07:07:44;2.38;;;0.90;;
38427;SDS011;24211;49.980;19.776;2023-07-30T07:10:13;3.40;;;1.40;;
38427;SDS011;24211;49.980;19.776;2023-07-30T07:12:40;3.35;;;1.13;;
38427;SDS011;24211;49.980;19.776;2023-07-30T07:15:07;4.45;;;1.02;;
38427;SDS011;24211;49.980;19.776;2023-07-30T07:17:36;2.53;;;1.13;;
38427;SDS011;24211;49.980;19.776;2023-07-30T07:20:04;2.55;;;1.17;;
38427;SDS011;24211;49.980;19.776;2023-07-30T07:22:34;3.55;;;1.30;;
38427;SDS011;24211;49.980;19.776;2023-07-30T07:25:01;3.58;;;1.10;;
38427;SDS011;24211;49.980;19.776;2023-07-30T07:27:29;2.58;;;1.00;;
38427;SDS011;24211;49.980;19.776;2023-07-30T07:29:56;3.17;;;1.27;;
38427;SDS011;24211;49.980;19.776;2023-07-30T07:32:24;2.50;;;1.10;;
38427;SDS011;24211;49.980;19.776;2023-07-30T07:34:51;3.95;;;1.10;;
38427;SDS011;24211;49.980;19.776;2023-07-30T07:37:19;1.88;;;1.00;;
38427;SDS011;24211;49.980;19.776;2023-07-30T07:39:49;2.47;;;1.10;;
38427;SDS011;24211;49.980;19.776;2023-07-30T07:42:22;1.98;;;0.88;;
38427;SDS011;24211;49.980;19.776;2023-07-30T07:44:49;2.03;;;1.10;;
38427;SDS011;24211;49.980;19.776;2023-07-30T07:47:16;2.65;;;1.10;;
38427;SDS011;24211;49.980;19.776;2023-07-30T07:49:43;3.10;;;1.10;;
38427;SDS011;24211;49.980;19.776;2023-07-30T07:52:11;2.28;;;1.05;;
38427;SDS011;24211;49.980;19.776;2023-07-30T07:54:38;3.03;;;1.02;;
38427;SDS011;24211;49.980;19.776;2023-07-30T07:57:08;1.63;;;0.80;;
38427;SDS011;24211;49.980;19.776;2023-07-30T07:59:35;2.03;;;1.00;;
38427;SDS011;24211;49.980;19.776;2023-07-30T08:02:06;2.22;;;0.93;;
38427;SDS011;24211;49.980;19.776;2023-07-30T08:04:34;1.10;;;0.68;;
38427;SDS011;24211;49.980;19.776;2023-07-30T08:07:01;1.88;;;0.88;;
38427;SDS011;24211;49.980;19.776;2023-07-30T08:09:30;2.03;;;0.98;;
38427;SDS011;24211;49.980;19.776;2023-07-30T08:11:59;1.60;;;0.80;;
38427;SDS011;24211;49.980;19.776;2023-07-30T08:14:29;3.55;;;0.80;;
38427;SDS011;24211;49.980;19.776;2023-07-30T08:17:11;1.83;;;0.70;;
38427;SDS011;24211;49.980;19.776;2023-07-30T08:19:39;1.77;;;0.85;;
38427;SDS011;24211;49.980;19.776;2023-07-30T08:22:13;1.70;;;0.80;;
38427;SDS011;24211;49.980;19.776;2023-07-30T08:24:40;1.50;;;0.75;;
38427;SDS011;24211;49.980;19.776;2023-07-30T08:27:08;2.05;;;0.80;;
38427;SDS011;24211;49.980;19.776;2023-07-30T08:29:35;2.03;;;1.00;;
38427;SDS011;24211;49.980;19.776;2023-07-30T08:32:07;2.08;;;0.90;;
38427;SDS011;24211;49.980;19.776;2023-07-30T08:34:34;1.92;;;0.80;;
38427;SDS011;24211;49.980;19.776;2023-07-30T08:37:01;1.70;;;0.90;;
38427;SDS011;24211;49.980;19.776;2023-07-30T08:39:29;2.10;;;0.90;;
38427;SDS011;24211;49.980;19.776;2023-07-30T08:41:57;1.05;;;0.60;;
38427;SDS011;24211;49.980;19.776;2023-07-30T08:44:25;2.97;;;0.93;;
38427;SDS011;24211;49.980;19.776;2023-07-30T08:46:53;3.20;;;0.80;;
38427;SDS011;24211;49.980;19.776;2023-07-30T08:49:22;1.77;;;0.93;;
38427;SDS011;24211;49.980;19.776;2023-07-30T08:51:51;1.48;;;0.80;;
38427;SDS011;24211;49.980;19.776;2023-07-30T08:54:20;1.90;;;0.60;;
38427;SDS011;24211;49.980;19.776;2023-07-30T08:56:50;1.42;;;0.70;;
38427;SDS011;24211;49.980;19.776;2023-07-30T08:59:23;1.65;;;0.90;;
38427;SDS011;24211;49.980;19.776;2023-07-30T09:01:56;1.65;;;0.85;;
38427;SDS011;24211;49.980;19.776;2023-07-30T09:04:31;1.67;;;0.80;;
38427;SDS011;24211;49.980;19.776;2023-07-30T09:07:08;2.40;;;1.00;;
38427;SDS011;24211;49.980;19.776;2023-07-30T09:09:38;2.17;;;0.80;;
38427;SDS011;24211;49.980;19.776;2023-07-30T09:12:12;2.15;;;1.00;;
38427;SDS011;24211;49.980;19.776;2023-07-30T09:14:41;2.25;;;0.90;;
38427;SDS011;24211;49.980;19.776;2023-07-30T09:17:17;2.38;;;0.88;;
38427;SDS011;24211;49.980;19.776;2023-07-30T09:19:45;2.28;;;0.80;;
38427;SDS011;24211;49.980;19.776;2023-07-30T09:22:24;1.30;;;0.80;;
38427;SDS011;24211;49.980;19.776;2023-07-30T09:25:01;1.95;;;0.80;;
38427;SDS011;24211;49.980;19.776;2023-07-30T09:27:29;2.53;;;0.95;;
38427;SDS011;24211;49.980;19.776;2023-07-30T09:29:59;1.30;;;0.80;;
38427;SDS011;24211;49.980;19.776;2023-07-30T09:32:34;1.65;;;0.90;;
38427;SDS011;24211;49.980;19.776;2023-07-30T09:35:05;1.45;;;0.90;;
38427;SDS011;24211;49.980;19.776;2023-07-30T09:37:39;1.88;;;0.90;;
38427;SDS011;24211;49.980;19.776;2023-07-30T09:40:10;2.42;;;1.20;;
38427;SDS011;24211;49.980;19.776;2023-07-30T09:42:44;1.95;;;0.80;;
38427;SDS011;24211;49.980;19.776;2023-07-30T09:45:19;2.88;;;0.70;;
38427;SDS011;24211;49.980;19.776;2023-07-30T09:47:52;1.92;;;1.00;;
38427;SDS011;24211;49.980;19.776;2023-07-30T09:50:23;1.40;;;0.82;;
38427;SDS011;24211;49.980;19.776;2023-07-30T09:52:50;1.65;;;0.98;;
38427;SDS011;24211;49.980;19.776;2023-07-30T09:55:21;2.08;;;0.90;;
38427;SDS011;24211;49.980;19.776;2023-07-30T09:57:51;1.30;;;0.80;;
38427;SDS011;24211;49.980;19.776;2023-07-30T10:00:31;1.77;;;0.70;;
38427;SDS011;24211;49.980;19.776;2023-07-30T10:03:19;1.25;;;0.75;;
38427;SDS011;24211;49.980;19.776;2023-07-30T10:06:02;1.50;;;0.80;;
38427;SDS011;24211;49.980;19.776;2023-07-30T10:08:34;2.75;;;0.80;;
38427;SDS011;24211;49.980;19.776;2023-07-30T10:11:08;1.13;;;0.60;;
38427;SDS011;24211;49.980;19.776;2023-07-30T10:13:38;2.88;;;0.80;;
38427;SDS011;24211;49.980;19.776;2023-07-30T10:16:11;1.85;;;0.80;;
38427;SDS011;24211;49.980;19.776;2023-07-30T10:18:39;1.55;;;0.90;;
38427;SDS011;24211;49.980;19.776;2023-07-30T10:21:08;1.75;;;0.82;;
38427;SDS011;24211;49.980;19.776;2023-07-30T10:24:07;1.83;;;0.88;;
38427;SDS011;24211;49.980;19.776;2023-07-30T10:26:51;2.30;;;1.00;;
38427;SDS011;24211;49.980;19.776;2023-07-30T10:29:24;2.05;;;0.80;;
38427;SDS011;24211;49.980;19.776;2023-07-30T10:31:53;1.23;;;0.85;;
38427;SDS011;24211;49.980;19.776;2023-07-30T10:34:25;1.60;;;0.90;;
38427;SDS011;24211;49.980;19.776;2023-07-30T10:37:09;1.90;;;0.80;;
38427;SDS011;24211;49.980;19.776;2023-07-30T10:39:37;1.92;;;0.90;;
38427;SDS011;24211;49.980;19.776;2023-07-30T10:42:04;1.05;;;0.70;;
38427;SDS011;24211;49.980;19.776;2023-07-30T10:44:35;1.30;;;0.90;;
38427;SDS011;24211;49.980;19.776;2023-07-30T10:47:03;2.05;;;0.93;;
38427;SDS011;24211;49.980;19.776;2023-07-30T10:49:38;1.35;;;0.80;;
38427;SDS011;24211;49.980;19.776;2023-07-30T10:52:13;1.52;;;0.80;;
38427;SDS011;24211;49.980;19.776;2023-07-30T10:54:43;1.50;;;0.82;;
38427;SDS011;24211;49.980;19.776;2023-07-30T10:57:13;1.58;;;0.80;;
38427;SDS011;24211;49.980;19.776;2023-07-30T10:59:41;1.58;;;0.90;;
38427;SDS011;24211;49.980;19.776;2023-07-30T11:02:08;2.03;;;0.90;;
38427;SDS011;24211;49.980;19.776;2023-07-30T11:04:39;1.48;;;0.80;;
38427;SDS011;24211;49.980;19.776;2023-07-30T11:07:06;1.75;;;1.00;;
38427;SDS011;24211;49.980;19.776;2023-07-30T11:09:33;1.63;;;0.90;;
38427;SDS011;24211;49.980;19.776;2023-07-30T11:12:08;1.85;;;0.80;;
38427;SDS011;24211;49.980;19.776;2023-07-30T11:14:41;1.52;;;0.82;;
38427;SDS011;24211;49.980;19.776;2023-07-30T11:17:08;1.75;;;0.70;;
38427;SDS011;24211;49.980;19.776;2023-07-30T11:19:36;1.45;;;0.70;;
38427;SDS011;24211;49.980;19.776;2023-07-30T11:22:32;1.75;;;0.80;;
38427;SDS011;24211;49.980;19.776;2023-07-30T11:25:02;1.10;;;0.70;;
38427;SDS011;24211;49.980;19.776;2023-07-30T11:27:47;1.92;;;0.80;;
38427;SDS011;24211;49.980;19.776;2023-07-30T11:30:16;1.85;;;0.80;;
38427;SDS011;24211;49.980;19.776;2023-07-30T11:32:45;1.80;;;0.70;;
38427;SDS011;24211;49.980;19.776;2023-07-30T11:35:13;0.93;;;0.60;;
38427;SDS011;24211;49.980;19.776;2023-07-30T11:37:43;1.52;;;0.70;;
38427;SDS011;24211;49.980;19.776;2023-07-30T11:40:11;1.20;;;0.70;;
38427;SDS011;24211;49.980;19.776;2023-07-30T11:42:39;1.25;;;0.75;;
38427;SDS011;24211;49.980;19.776;2023-07-30T11:45:17;1.42;;;0.70;;
38427;SDS011;24211;49.980;19.776;2023-07-30T11:47:49;2.08;;;0.80;;
38427;SDS011;24211;49.980;19.776;2023-07-30T11:50:18;1.17;;;0.68;;
38427;SDS011;24211;49.980;19.776;2023-07-30T11:52:53;1.50;;;1.00;;
38427;SDS011;24211;49.980;19.776;2023-07-30T11:55:23;1.75;;;0.80;;
38427;SDS011;24211;49.980;19.776;2023-07-30T11:58:03;1.42;;;0.82;;
38427;SDS011;24211;49.980;19.776;2023-07-30T12:00:36;1.40;;;0.80;;
38427;SDS011;24211;49.980;19.776;2023-07-30T12:03:10;3.33;;;0.90;;
38427;SDS011;24211;49.980;19.776;2023-07-30T12:05:39;1.25;;;0.75;;
38427;SDS011;24211;49.980;19.776;2023-07-30T12:08:25;1.65;;;0.80;;
38427;SDS011;24211;49.980;19.776;2023-07-30T12:11:05;1.75;;;0.95;;
38427;SDS011;24211;49.980;19.776;2023-07-30T12:13:44;1.60;;;0.90;;
38427;SDS011;24211;49.980;19.776;2023-07-30T12:16:13;1.55;;;0.73;;
38427;SDS011;24211;49.980;19.776;2023-07-30T12:18:43;1.60;;;0.80;;
38427;SDS011;24211;49.980;19.776;2023-07-30T12:21:11;1.73;;;0.80;;
38427;SDS011;24211;49.980;19.776;2023-07-30T12:23:42;1.48;;;0.80;;
38427;SDS011;24211;49.980;19.776;2023-07-30T12:26:10;1.65;;;0.80;;
38427;SDS011;24211;49.980;19.776;2023-07-30T12:28:38;2.00;;;0.88;;
38427;SDS011;24211;49.980;19.776;2023-07-30T12:31:10;1.80;;;0.85;;
38427;SDS011;24211;49.980;19.776;2023-07-30T12:33:37;1.60;;;0.70;;
38427;SDS011;24211;49.980;19.776;2023-07-30T12:36:07;1.40;;;0.80;;
38427;SDS011;24211;49.980;19.776;2023-07-30T12:38:34;1.25;;;0.80;;
38427;SDS011;24211;49.980;19.776;2023-07-30T12:41:06;2.22;;;0.80;;
38427;SDS011;24211;49.980;19.776;2023-07-30T12:43:45;1.75;;;0.80;;
38427;SDS011;24211;49.980;19.776;2023-07-30T12:46:12;1.80;;;0.90;;
38427;SDS011;24211;49.980;19.776;2023-07-30T12:48:40;1.77;;;0.80;;
38427;SDS011;24211;49.980;19.776;2023-07-30T12:51:07;1.42;;;0.70;;
38427;SDS011;24211;49.980;19.776;2023-07-30T12:53:35;1.98;;;1.02;;
38427;SDS011;24211;49.980;19.776;2023-07-30T12:56:03;1.48;;;0.85;;
38427;SDS011;24211;49.980;19.776;2023-07-30T12:58:30;1.73;;;0.90;;
38427;SDS011;24211;49.980;19.776;2023-07-30T13:00:58;1.23;;;0.90;;
38427;SDS011;24211;49.980;19.776;2023-07-30T13:03:34;1.58;;;0.90;;
38427;SDS011;24211;49.980;19.776;2023-07-30T13:06:03;1.17;;;0.70;;
38427;SDS011;24211;49.980;19.776;2023-07-30T13:08:30;1.42;;;0.77;;
38427;SDS011;24211;49.980;19.776;2023-07-30T13:10:57;2.08;;;1.00;;
38427;SDS011;24211;49.980;19.776;2023-07-30T13:13:25;1.90;;;0.90;;
38427;SDS011;24211;49.980;19.776;2023-07-30T13:16:10;1.52;;;0.90;;
38427;SDS011;24211;49.980;19.776;2023-07-30T13:18:37;1.52;;;0.90;;
38427;SDS011;24211;49.980;19.776;2023-07-30T13:21:05;1.35;;;0.80;;
38427;SDS011;24211;49.980;19.776;2023-07-30T13:23:39;1.67;;;0.82;;
38427;SDS011;24211;49.980;19.776;2023-07-30T13:26:07;2.45;;;0.98;;
38427;SDS011;24211;49.980;19.776;2023-07-30T13:28:34;2.20;;;0.90;;
38427;SDS011;24211;49.980;19.776;2023-07-30T13:31:03;2.13;;;0.90;;
38427;SDS011;24211;49.980;19.776;2023-07-30T13:33:30;2.15;;;1.00;;
38427;SDS011;24211;49.980;19.776;2023-07-30T13:35:58;1.63;;;0.90;;
38427;SDS011;24211;49.980;19.776;2023-07-30T13:38:25;1.17;;;0.70;;
38427;SDS011;24211;49.980;19.776;2023-07-30T13:40:53;2.90;;;1.20;;
38427;SDS011;24211;49.980;19.776;2023-07-30T13:43:21;2.13;;;1.00;;
38427;SDS011;24211;49.980;19.776;2023-07-30T13:45:49;2.22;;;1.00;;
38427;SDS011;24211;49.980;19.776;2023-07-30T13:48:17;2.50;;;1.00;;
38427;SDS011;24211;49.980;19.776;2023-07-30T13:50:45;1.95;;;0.90;;
38427;SDS011;24211;49.980;19.776;2023-07-30T13:53:18;1.58;;;0.77;;
38427;SDS011;24211;49.980;19.776;2023-07-30T13:55:46;1.00;;;0.70;;
38427;SDS011;24211;49.980;19.776;2023-07-30T13:58:14;1.48;;;0.90;;
38427;SDS011;24211;49.980;19.776;2023-07-30T14:00:42;1.38;;;0.80;;
38427;SDS011;24211;49.980;19.776;2023-07-30T14:03:11;1.80;;;0.90;;
38427;SDS011;24211;49.980;19.776;2023-07-30T14:05:43;1.63;;;0.85;;
38427;SDS011;24211;49.980;19.776;2023-07-30T14:08:12;1.85;;;0.80;;
38427;SDS011;24211;49.980;19.776;2023-07-30T14:10:39;2.22;;;0.85;;
38427;SDS011;24211;49.980;19.776;2023-07-30T14:13:06;1.80;;;0.90;;
38427;SDS011;24211;49.980;19.776;2023-07-30T14:15:34;1.10;;;0.70;;
38427;SDS011;24211;49.980;19.776;2023-07-30T14:18:10;1.67;;;1.00;;
38427;SDS011;24211;49.980;19.776;2023-07-30T14:20:37;1.52;;;0.88;;
38427;SDS011;24211;49.980;19.776;2023-07-30T14:23:05;2.03;;;0.90;;
38427;SDS011;24211;49.980;19.776;2023-07-30T14:25:32;1.30;;;0.80;;
38427;SDS011;24211;49.980;19.776;2023-07-30T14:28:05;1.40;;;0.90;;
38427;SDS011;24211;49.980;19.776;2023-07-30T14:30:32;1.60;;;0.80;;
38427;SDS011;24211;49.980;19.776;2023-07-30T14:33:03;2.08;;;0.90;;
38427;SDS011;24211;49.980;19.776;2023-07-30T14:35:30;2.10;;;1.00;;
38427;SDS011;24211;49.980;19.776;2023-07-30T14:37:58;1.50;;;0.80;;
38427;SDS011;24211;49.980;19.776;2023-07-30T14:40:26;1.65;;;0.90;;
38427;SDS011;24211;49.980;19.776;2023-07-30T14:42:56;1.77;;;0.80;;
38427;SDS011;24211;49.980;19.776;2023-07-30T14:45:24;1.25;;;0.80;;
38427;SDS011;24211;49.980;19.776;2023-07-30T14:47:52;1.80;;;1.00;;